Terminal Aerodrome Forecast
Issued by NWS

Home | Current Version | Previous Version | Text Only | Print | Product List | Glossary On
Versions: 1 2 3 4 5 6 7 8 9 10 11 12 13 14
000
FTAK31 PAJN 290500
TAFASI
TAF
PASI 290527Z 2906/3006 09005KT P6SM SCT050
      TEMPO 2906/2910 BKN050
     FM291400 12007KT P6SM VCSH SCT070 BKN110
     FM292100 09008KT 5SM -SNRA BR SCT030 BKN050 OVC070
     FM300300 08005KT 5SM -SN BKN040 OVC060=

USA.gov is the U.S. government's official web portal to all federal, state and local government web resources and services.